sensor_id;sensor_type;location;lat;lon;timestamp;P1;durP1;ratioP1;P2;durP2;ratioP2
40599;SDS011;26309;50.924;4.754;2023-03-21T00:01:57;14.80;;;7.70;;
40599;SDS011;26309;50.924;4.754;2023-03-21T00:04:24;14.95;;;7.78;;
40599;SDS011;26309;50.924;4.754;2023-03-21T00:06:50;18.33;;;8.13;;
40599;SDS011;26309;50.924;4.754;2023-03-21T00:09:17;11.68;;;7.88;;
40599;SDS011;26309;50.924;4.754;2023-03-21T00:11:43;14.60;;;8.05;;
40599;SDS011;26309;50.924;4.754;2023-03-21T00:14:09;17.70;;;7.20;;
40599;SDS011;26309;50.924;4.754;2023-03-21T00:16:41;17.90;;;8.18;;
40599;SDS011;26309;50.924;4.754;2023-03-21T00:19:10;16.65;;;8.02;;
40599;SDS011;26309;50.924;4.754;2023-03-21T00:21:38;21.73;;;8.90;;
40599;SDS011;26309;50.924;4.754;2023-03-21T00:24:07;15.57;;;8.35;;
40599;SDS011;26309;50.924;4.754;2023-03-21T00:26:33;13.35;;;7.38;;
40599;SDS011;26309;50.924;4.754;2023-03-21T00:28:59;15.10;;;8.32;;
40599;SDS011;26309;50.924;4.754;2023-03-21T00:31:25;16.92;;;8.30;;
40599;SDS011;26309;50.924;4.754;2023-03-21T00:33:51;14.68;;;8.18;;
40599;SDS011;26309;50.924;4.754;2023-03-21T00:36:17;19.15;;;7.80;;
40599;SDS011;26309;50.924;4.754;2023-03-21T00:38:43;15.80;;;8.45;;
40599;SDS011;26309;50.924;4.754;2023-03-21T00:41:10;15.63;;;7.72;;
40599;SDS011;26309;50.924;4.754;2023-03-21T00:43:38;16.52;;;8.27;;
40599;SDS011;26309;50.924;4.754;2023-03-21T00:46:04;12.25;;;7.53;;
40599;SDS011;26309;50.924;4.754;2023-03-21T00:48:30;18.63;;;8.75;;
40599;SDS011;26309;50.924;4.754;2023-03-21T00:50:56;14.57;;;8.10;;
40599;SDS011;26309;50.924;4.754;2023-03-21T00:53:25;16.35;;;8.23;;
40599;SDS011;26309;50.924;4.754;2023-03-21T00:55:52;17.55;;;8.48;;
40599;SDS011;26309;50.924;4.754;2023-03-21T00:58:17;18.38;;;8.45;;
40599;SDS011;26309;50.924;4.754;2023-03-21T01:00:44;16.63;;;7.80;;
40599;SDS011;26309;50.924;4.754;2023-03-21T01:03:13;14.68;;;7.68;;
40599;SDS011;26309;50.924;4.754;2023-03-21T01:05:41;14.43;;;7.78;;
40599;SDS011;26309;50.924;4.754;2023-03-21T01:08:29;17.17;;;7.78;;
40599;SDS011;26309;50.924;4.754;2023-03-21T01:10:59;17.35;;;8.43;;
40599;SDS011;26309;50.924;4.754;2023-03-21T01:13:29;16.15;;;7.78;;
40599;SDS011;26309;50.924;4.754;2023-03-21T01:15:55;15.82;;;8.23;;
40599;SDS011;26309;50.924;4.754;2023-03-21T01:18:23;15.40;;;7.68;;
40599;SDS011;26309;50.924;4.754;2023-03-21T01:20:51;12.77;;;7.32;;
40599;SDS011;26309;50.924;4.754;2023-03-21T01:23:18;15.52;;;7.30;;
40599;SDS011;26309;50.924;4.754;2023-03-21T01:25:46;16.25;;;7.68;;
40599;SDS011;26309;50.924;4.754;2023-03-21T01:28:12;14.30;;;7.35;;
40599;SDS011;26309;50.924;4.754;2023-03-21T01:30:39;12.90;;;7.57;;
40599;SDS011;26309;50.924;4.754;2023-03-21T01:33:13;15.65;;;6.90;;
40599;SDS011;26309;50.924;4.754;2023-03-21T01:35:40;14.63;;;7.45;;
40599;SDS011;26309;50.924;4.754;2023-03-21T01:38:06;14.30;;;7.90;;
40599;SDS011;26309;50.924;4.754;2023-03-21T01:40:34;16.48;;;7.57;;
40599;SDS011;26309;50.924;4.754;2023-03-21T01:43:00;16.65;;;7.15;;
40599;SDS011;26309;50.924;4.754;2023-03-21T01:48:30;13.00;;;7.40;;
40599;SDS011;26309;50.924;4.754;2023-03-21T01:50:58;15.50;;;7.45;;
40599;SDS011;26309;50.924;4.754;2023-03-21T01:53:25;15.68;;;8.00;;
40599;SDS011;26309;50.924;4.754;2023-03-21T01:56:02;15.25;;;7.57;;
40599;SDS011;26309;50.924;4.754;2023-03-21T01:58:32;12.70;;;7.35;;
40599;SDS011;26309;50.924;4.754;2023-03-21T02:00:59;16.75;;;7.30;;
40599;SDS011;26309;50.924;4.754;2023-03-21T02:03:27;15.43;;;7.05;;
40599;SDS011;26309;50.924;4.754;2023-03-21T02:06:07;13.00;;;6.93;;
40599;SDS011;26309;50.924;4.754;2023-03-21T02:08:38;15.35;;;7.43;;
40599;SDS011;26309;50.924;4.754;2023-03-21T02:11:04;18.40;;;7.57;;
40599;SDS011;26309;50.924;4.754;2023-03-21T02:13:32;17.23;;;8.07;;
40599;SDS011;26309;50.924;4.754;2023-03-21T02:16:00;15.90;;;7.60;;
40599;SDS011;26309;50.924;4.754;2023-03-21T02:18:46;14.77;;;7.88;;
40599;SDS011;26309;50.924;4.754;2023-03-21T02:21:39;16.40;;;7.43;;
40599;SDS011;26309;50.924;4.754;2023-03-21T02:27:34;17.05;;;7.15;;
40599;SDS011;26309;50.924;4.754;2023-03-21T02:38:21;16.40;;;7.65;;
40599;SDS011;26309;50.924;4.754;2023-03-21T02:41:24;15.75;;;7.65;;
40599;SDS011;26309;50.924;4.754;2023-03-21T02:46:49;17.25;;;7.70;;
40599;SDS011;26309;50.924;4.754;2023-03-21T02:49:45;18.35;;;7.88;;
40599;SDS011;26309;50.924;4.754;2023-03-21T02:52:18;21.13;;;8.15;;
40599;SDS011;26309;50.924;4.754;2023-03-21T02:54:47;17.67;;;7.47;;
40599;SDS011;26309;50.924;4.754;2023-03-21T02:57:16;19.17;;;7.03;;
40599;SDS011;26309;50.924;4.754;2023-03-21T02:59:43;17.40;;;7.45;;
40599;SDS011;26309;50.924;4.754;2023-03-21T03:02:12;18.30;;;6.90;;
40599;SDS011;26309;50.924;4.754;2023-03-21T03:04:41;14.95;;;6.10;;
40599;SDS011;26309;50.924;4.754;2023-03-21T03:07:12;18.63;;;7.43;;
40599;SDS011;26309;50.924;4.754;2023-03-21T03:13:14;15.70;;;6.22;;
40599;SDS011;26309;50.924;4.754;2023-03-21T03:19:00;15.65;;;6.30;;
40599;SDS011;26309;50.924;4.754;2023-03-21T03:24:06;14.23;;;5.85;;
40599;SDS011;26309;50.924;4.754;2023-03-21T03:29:13;12.57;;;5.10;;
40599;SDS011;26309;50.924;4.754;2023-03-21T03:31:45;10.95;;;4.95;;
40599;SDS011;26309;50.924;4.754;2023-03-21T03:34:35;15.20;;;5.40;;
40599;SDS011;26309;50.924;4.754;2023-03-21T03:37:06;8.20;;;4.97;;
40599;SDS011;26309;50.924;4.754;2023-03-21T03:39:57;13.07;;;4.95;;
40599;SDS011;26309;50.924;4.754;2023-03-21T03:42:30;11.25;;;4.93;;
40599;SDS011;26309;50.924;4.754;2023-03-21T03:45:00;12.35;;;5.10;;
40599;SDS011;26309;50.924;4.754;2023-03-21T03:50:08;9.40;;;4.35;;
40599;SDS011;26309;50.924;4.754;2023-03-21T03:52:44;11.45;;;4.65;;
40599;SDS011;26309;50.924;4.754;2023-03-21T03:55:16;8.27;;;4.20;;
40599;SDS011;26309;50.924;4.754;2023-03-21T03:57:45;16.08;;;4.75;;
40599;SDS011;26309;50.924;4.754;2023-03-21T04:00:12;10.90;;;3.63;;
40599;SDS011;26309;50.924;4.754;2023-03-21T04:02:40;11.50;;;4.28;;
40599;SDS011;26309;50.924;4.754;2023-03-21T04:05:06;9.38;;;3.97;;
40599;SDS011;26309;50.924;4.754;2023-03-21T04:07:33;14.70;;;4.65;;
40599;SDS011;26309;50.924;4.754;2023-03-21T04:09:59;10.25;;;4.43;;
40599;SDS011;26309;50.924;4.754;2023-03-21T04:12:25;9.93;;;4.35;;
40599;SDS011;26309;50.924;4.754;2023-03-21T04:14:50;9.95;;;4.78;;
40599;SDS011;26309;50.924;4.754;2023-03-21T04:17:16;12.23;;;5.05;;
40599;SDS011;26309;50.924;4.754;2023-03-21T04:19:43;13.23;;;5.32;;
40599;SDS011;26309;50.924;4.754;2023-03-21T04:22:10;9.13;;;5.28;;
40599;SDS011;26309;50.924;4.754;2023-03-21T04:24:37;12.63;;;5.72;;
40599;SDS011;26309;50.924;4.754;2023-03-21T04:27:03;15.63;;;5.80;;
40599;SDS011;26309;50.924;4.754;2023-03-21T04:29:32;13.07;;;7.07;;
40599;SDS011;26309;50.924;4.754;2023-03-21T04:31:58;15.02;;;6.80;;
40599;SDS011;26309;50.924;4.754;2023-03-21T04:34:25;14.98;;;6.75;;
40599;SDS011;26309;50.924;4.754;2023-03-21T04:36:54;14.93;;;7.22;;
40599;SDS011;26309;50.924;4.754;2023-03-21T04:39:20;18.35;;;7.28;;
40599;SDS011;26309;50.924;4.754;2023-03-21T04:41:46;22.13;;;7.82;;
40599;SDS011;26309;50.924;4.754;2023-03-21T04:44:13;19.83;;;7.38;;
40599;SDS011;26309;50.924;4.754;2023-03-21T04:46:40;18.95;;;7.70;;
40599;SDS011;26309;50.924;4.754;2023-03-21T04:49:06;23.20;;;8.63;;
40599;SDS011;26309;50.924;4.754;2023-03-21T04:51:33;18.35;;;7.22;;
40599;SDS011;26309;50.924;4.754;2023-03-21T04:54:00;13.48;;;7.78;;
40599;SDS011;26309;50.924;4.754;2023-03-21T04:56:26;17.48;;;8.15;;
40599;SDS011;26309;50.924;4.754;2023-03-21T04:58:58;16.92;;;7.40;;
40599;SDS011;26309;50.924;4.754;2023-03-21T05:01:25;19.25;;;8.10;;
40599;SDS011;26309;50.924;4.754;2023-03-21T05:03:56;13.82;;;7.65;;
40599;SDS011;26309;50.924;4.754;2023-03-21T05:06:23;19.17;;;8.00;;
40599;SDS011;26309;50.924;4.754;2023-03-21T05:08:50;16.75;;;7.93;;
40599;SDS011;26309;50.924;4.754;2023-03-21T05:11:16;21.13;;;8.30;;
40599;SDS011;26309;50.924;4.754;2023-03-21T05:13:42;22.38;;;8.93;;
40599;SDS011;26309;50.924;4.754;2023-03-21T05:16:08;19.55;;;7.97;;
40599;SDS011;26309;50.924;4.754;2023-03-21T05:18:34;15.23;;;7.97;;
40599;SDS011;26309;50.924;4.754;2023-03-21T05:21:03;14.93;;;7.65;;
40599;SDS011;26309;50.924;4.754;2023-03-21T05:23:32;16.17;;;7.70;;
40599;SDS011;26309;50.924;4.754;2023-03-21T05:26:06;17.83;;;8.30;;
40599;SDS011;26309;50.924;4.754;2023-03-21T05:28:33;21.90;;;8.75;;
40599;SDS011;26309;50.924;4.754;2023-03-21T05:31:04;22.38;;;8.63;;
40599;SDS011;26309;50.924;4.754;2023-03-21T05:33:31;16.23;;;7.90;;
40599;SDS011;26309;50.924;4.754;2023-03-21T05:35:57;17.35;;;8.23;;
40599;SDS011;26309;50.924;4.754;2023-03-21T05:38:23;18.08;;;8.40;;
40599;SDS011;26309;50.924;4.754;2023-03-21T05:40:50;16.45;;;8.13;;
40599;SDS011;26309;50.924;4.754;2023-03-21T05:43:18;18.25;;;8.15;;
40599;SDS011;26309;50.924;4.754;2023-03-21T05:45:44;16.42;;;7.95;;
40599;SDS011;26309;50.924;4.754;2023-03-21T05:48:09;17.52;;;7.90;;
40599;SDS011;26309;50.924;4.754;2023-03-21T05:50:35;14.70;;;7.93;;
40599;SDS011;26309;50.924;4.754;2023-03-21T05:53:03;16.20;;;8.10;;
40599;SDS011;26309;50.924;4.754;2023-03-21T05:55:29;19.10;;;7.63;;
40599;SDS011;26309;50.924;4.754;2023-03-21T05:57:55;17.17;;;7.18;;
40599;SDS011;26309;50.924;4.754;2023-03-21T06:00:21;18.38;;;7.95;;
40599;SDS011;26309;50.924;4.754;2023-03-21T06:02:47;16.35;;;7.10;;
40599;SDS011;26309;50.924;4.754;2023-03-21T06:05:12;16.00;;;7.13;;
40599;SDS011;26309;50.924;4.754;2023-03-21T06:07:38;16.45;;;7.15;;
40599;SDS011;26309;50.924;4.754;2023-03-21T06:10:04;13.55;;;7.18;;
40599;SDS011;26309;50.924;4.754;2023-03-21T06:12:31;17.67;;;7.30;;
40599;SDS011;26309;50.924;4.754;2023-03-21T06:14:57;15.85;;;7.30;;
40599;SDS011;26309;50.924;4.754;2023-03-21T06:17:23;14.13;;;7.03;;
40599;SDS011;26309;50.924;4.754;2023-03-21T06:19:49;14.50;;;6.63;;
40599;SDS011;26309;50.924;4.754;2023-03-21T06:22:16;10.90;;;6.20;;
40599;SDS011;26309;50.924;4.754;2023-03-21T06:24:41;13.65;;;6.65;;
40599;SDS011;26309;50.924;4.754;2023-03-21T06:27:07;16.48;;;6.25;;
40599;SDS011;26309;50.924;4.754;2023-03-21T06:29:33;16.23;;;6.43;;
40599;SDS011;26309;50.924;4.754;2023-03-21T06:31:59;16.38;;;6.85;;
40599;SDS011;26309;50.924;4.754;2023-03-21T06:34:26;14.73;;;6.50;;
40599;SDS011;26309;50.924;4.754;2023-03-21T06:36:53;11.93;;;6.57;;
40599;SDS011;26309;50.924;4.754;2023-03-21T06:39:19;16.75;;;6.28;;
40599;SDS011;26309;50.924;4.754;2023-03-21T06:41:45;17.48;;;6.80;;
40599;SDS011;26309;50.924;4.754;2023-03-21T06:44:11;13.32;;;6.63;;
40599;SDS011;26309;50.924;4.754;2023-03-21T06:46:37;13.25;;;6.65;;
40599;SDS011;26309;50.924;4.754;2023-03-21T06:49:03;16.25;;;6.88;;
40599;SDS011;26309;50.924;4.754;2023-03-21T06:51:29;14.23;;;7.03;;
40599;SDS011;26309;50.924;4.754;2023-03-21T06:53:55;19.77;;;7.13;;
40599;SDS011;26309;50.924;4.754;2023-03-21T06:56:21;18.60;;;7.53;;
40599;SDS011;26309;50.924;4.754;2023-03-21T06:58:47;11.93;;;6.72;;
40599;SDS011;26309;50.924;4.754;2023-03-21T07:01:13;16.30;;;7.00;;
40599;SDS011;26309;50.924;4.754;2023-03-21T07:03:39;11.70;;;6.90;;
40599;SDS011;26309;50.924;4.754;2023-03-21T07:06:08;19.02;;;7.28;;
40599;SDS011;26309;50.924;4.754;2023-03-21T07:08:38;15.48;;;7.75;;
40599;SDS011;26309;50.924;4.754;2023-03-21T07:11:06;18.52;;;7.35;;
40599;SDS011;26309;50.924;4.754;2023-03-21T07:13:33;15.05;;;7.20;;
40599;SDS011;26309;50.924;4.754;2023-03-21T07:16:00;18.58;;;7.32;;
40599;SDS011;26309;50.924;4.754;2023-03-21T07:18:26;21.50;;;7.15;;
40599;SDS011;26309;50.924;4.754;2023-03-21T07:20:55;17.70;;;7.28;;
40599;SDS011;26309;50.924;4.754;2023-03-21T07:23:22;16.75;;;6.68;;
40599;SDS011;26309;50.924;4.754;2023-03-21T07:25:50;15.73;;;6.93;;
40599;SDS011;26309;50.924;4.754;2023-03-21T07:28:16;18.00;;;6.40;;
40599;SDS011;26309;50.924;4.754;2023-03-21T07:30:43;12.82;;;6.32;;
40599;SDS011;26309;50.924;4.754;2023-03-21T07:33:10;14.50;;;6.43;;
40599;SDS011;26309;50.924;4.754;2023-03-21T07:35:36;14.40;;;6.30;;
40599;SDS011;26309;50.924;4.754;2023-03-21T07:38:05;15.73;;;5.60;;
40599;SDS011;26309;50.924;4.754;2023-03-21T07:40:32;12.60;;;5.85;;
40599;SDS011;26309;50.924;4.754;2023-03-21T07:42:57;10.27;;;5.15;;
40599;SDS011;26309;50.924;4.754;2023-03-21T07:45:23;15.57;;;5.47;;
40599;SDS011;26309;50.924;4.754;2023-03-21T07:47:51;12.45;;;6.10;;
40599;SDS011;26309;50.924;4.754;2023-03-21T07:50:18;11.63;;;5.80;;
40599;SDS011;26309;50.924;4.754;2023-03-21T07:52:45;15.82;;;5.45;;
40599;SDS011;26309;50.924;4.754;2023-03-21T07:55:11;14.00;;;5.38;;
40599;SDS011;26309;50.924;4.754;2023-03-21T07:57:37;12.98;;;5.50;;
40599;SDS011;26309;50.924;4.754;2023-03-21T08:00:04;9.98;;;4.88;;
40599;SDS011;26309;50.924;4.754;2023-03-21T08:02:31;12.55;;;5.38;;
40599;SDS011;26309;50.924;4.754;2023-03-21T08:04:57;7.95;;;4.65;;
40599;SDS011;26309;50.924;4.754;2023-03-21T08:07:23;10.18;;;4.53;;
40599;SDS011;26309;50.924;4.754;2023-03-21T08:09:48;10.55;;;4.32;;
40599;SDS011;26309;50.924;4.754;2023-03-21T08:12:14;11.10;;;4.65;;
40599;SDS011;26309;50.924;4.754;2023-03-21T08:14:40;11.93;;;4.82;;
40599;SDS011;26309;50.924;4.754;2023-03-21T08:17:06;11.85;;;4.95;;
40599;SDS011;26309;50.924;4.754;2023-03-21T08:19:33;8.63;;;4.38;;
40599;SDS011;26309;50.924;4.754;2023-03-21T08:22:00;13.18;;;4.65;;
40599;SDS011;26309;50.924;4.754;2023-03-21T08:24:26;8.52;;;4.78;;
40599;SDS011;26309;50.924;4.754;2023-03-21T08:26:55;11.38;;;4.72;;
40599;SDS011;26309;50.924;4.754;2023-03-21T08:29:21;11.07;;;4.68;;
40599;SDS011;26309;50.924;4.754;2023-03-21T08:31:49;9.60;;;5.03;;
40599;SDS011;26309;50.924;4.754;2023-03-21T08:34:15;12.50;;;5.03;;
40599;SDS011;26309;50.924;4.754;2023-03-21T08:36:42;10.75;;;4.82;;
40599;SDS011;26309;50.924;4.754;2023-03-21T08:39:08;10.88;;;4.93;;
40599;SDS011;26309;50.924;4.754;2023-03-21T08:41:34;12.10;;;4.70;;
40599;SDS011;26309;50.924;4.754;2023-03-21T08:44:04;15.25;;;5.45;;
40599;SDS011;26309;50.924;4.754;2023-03-21T08:46:31;9.63;;;4.72;;
40599;SDS011;26309;50.924;4.754;2023-03-21T08:48:57;12.48;;;5.13;;
40599;SDS011;26309;50.924;4.754;2023-03-21T08:51:23;14.40;;;5.40;;
40599;SDS011;26309;50.924;4.754;2023-03-21T08:53:49;12.80;;;5.13;;
40599;SDS011;26309;50.924;4.754;2023-03-21T08:56:15;10.93;;;4.90;;
40599;SDS011;26309;50.924;4.754;2023-03-21T08:58:41;10.55;;;5.03;;
40599;SDS011;26309;50.924;4.754;2023-03-21T09:01:08;11.98;;;5.10;;
40599;SDS011;26309;50.924;4.754;2023-03-21T09:03:38;9.32;;;4.80;;
40599;SDS011;26309;50.924;4.754;2023-03-21T09:06:04;11.65;;;5.18;;
40599;SDS011;26309;50.924;4.754;2023-03-21T09:08:30;13.10;;;5.03;;
40599;SDS011;26309;50.924;4.754;2023-03-21T09:10:56;11.52;;;5.10;;
40599;SDS011;26309;50.924;4.754;2023-03-21T09:13:22;12.13;;;4.78;;
40599;SDS011;26309;50.924;4.754;2023-03-21T09:15:48;16.20;;;5.10;;
40599;SDS011;26309;50.924;4.754;2023-03-21T09:18:15;12.25;;;4.97;;
40599;SDS011;26309;50.924;4.754;2023-03-21T09:20:42;10.88;;;5.25;;
40599;SDS011;26309;50.924;4.754;2023-03-21T09:23:16;11.55;;;5.10;;
40599;SDS011;26309;50.924;4.754;2023-03-21T09:25:43;10.80;;;4.45;;
40599;SDS011;26309;50.924;4.754;2023-03-21T11:38:41;7.20;;;3.20;;
40599;SDS011;26309;50.924;4.754;2023-03-21T11:44:08;8.60;;;3.58;;
40599;SDS011;26309;50.924;4.754;2023-03-21T11:46:52;11.45;;;3.95;;
40599;SDS011;26309;50.924;4.754;2023-03-21T11:49:19;13.98;;;3.85;;
40599;SDS011;26309;50.924;4.754;2023-03-21T11:54:39;8.57;;;3.22;;
40599;SDS011;26309;50.924;4.754;2023-03-21T12:00:06;5.65;;;3.05;;
40599;SDS011;26309;50.924;4.754;2023-03-21T12:45:49;9.80;;;5.00;;
40599;SDS011;26309;50.924;4.754;2023-03-21T12:48:35;8.95;;;4.10;;
40599;SDS011;26309;50.924;4.754;2023-03-21T12:51:30;7.95;;;4.53;;
40599;SDS011;26309;50.924;4.754;2023-03-21T15:18:12;13.00;;;6.18;;
40599;SDS011;26309;50.924;4.754;2023-03-21T15:20:51;8.50;;;6.03;;
40599;SDS011;26309;50.924;4.754;2023-03-21T15:55:23;12.55;;;8.48;;
40599;SDS011;26309;50.924;4.754;2023-03-21T15:58:04;10.05;;;7.80;;
40599;SDS011;26309;50.924;4.754;2023-03-21T16:00:41;14.07;;;8.07;;
40599;SDS011;26309;50.924;4.754;2023-03-21T16:07:43;13.65;;;7.70;;
40599;SDS011;26309;50.924;4.754;2023-03-21T16:10:13;10.93;;;6.57;;
40599;SDS011;26309;50.924;4.754;2023-03-21T16:12:52;11.60;;;7.28;;
40599;SDS011;26309;50.924;4.754;2023-03-21T16:15:26;10.98;;;7.50;;
40599;SDS011;26309;50.924;4.754;2023-03-21T16:18:04;12.07;;;8.43;;
40599;SDS011;26309;50.924;4.754;2023-03-21T16:20:37;16.15;;;11.52;;
40599;SDS011;26309;50.924;4.754;2023-03-21T16:23:11;18.17;;;11.13;;
40599;SDS011;26309;50.924;4.754;2023-03-21T16:25:42;16.83;;;11.60;;
40599;SDS011;26309;50.924;4.754;2023-03-21T16:28:17;19.05;;;12.93;;
40599;SDS011;26309;50.924;4.754;2023-03-21T16:30:44;15.20;;;11.00;;
40599;SDS011;26309;50.924;4.754;2023-03-21T16:36:52;14.20;;;11.02;;
40599;SDS011;26309;50.924;4.754;2023-03-21T16:39:23;15.75;;;9.50;;
40599;SDS011;26309;50.924;4.754;2023-03-21T16:41:51;13.82;;;10.85;;
40599;SDS011;26309;50.924;4.754;2023-03-21T16:44:18;15.35;;;10.70;;
40599;SDS011;26309;50.924;4.754;2023-03-21T16:46:50;17.63;;;11.20;;
40599;SDS011;26309;50.924;4.754;2023-03-21T16:49:24;14.38;;;10.65;;
40599;SDS011;26309;50.924;4.754;2023-03-21T16:51:53;20.20;;;15.05;;
40599;SDS011;26309;50.924;4.754;2023-03-21T17:09:25;14.73;;;9.45;;
40599;SDS011;26309;50.924;4.754;2023-03-21T17:12:16;14.75;;;10.30;;
40599;SDS011;26309;50.924;4.754;2023-03-21T17:14:52;12.55;;;8.93;;
40599;SDS011;26309;50.924;4.754;2023-03-21T17:17:46;14.13;;;9.55;;
40599;SDS011;26309;50.924;4.754;2023-03-21T17:20:42;14.57;;;9.00;;
40599;SDS011;26309;50.924;4.754;2023-03-21T17:23:48;13.30;;;8.90;;
40599;SDS011;26309;50.924;4.754;2023-03-21T17:27:10;14.15;;;9.45;;
40599;SDS011;26309;50.924;4.754;2023-03-21T17:30:17;15.15;;;9.38;;
40599;SDS011;26309;50.924;4.754;2023-03-21T17:33:07;15.73;;;9.57;;
40599;SDS011;26309;50.924;4.754;2023-03-21T17:48:47;13.90;;;10.98;;
40599;SDS011;26309;50.924;4.754;2023-03-21T17:51:14;13.82;;;9.77;;
40599;SDS011;26309;50.924;4.754;2023-03-21T17:53:44;10.63;;;9.40;;
40599;SDS011;26309;50.924;4.754;2023-03-21T17:56:21;10.55;;;8.43;;
40599;SDS011;26309;50.924;4.754;2023-03-21T17:58:50;11.65;;;8.27;;
40599;SDS011;26309;50.924;4.754;2023-03-21T18:18:26;10.00;;;6.03;;
40599;SDS011;26309;50.924;4.754;2023-03-21T18:20:53;9.18;;;6.07;;
40599;SDS011;26309;50.924;4.754;2023-03-21T18:23:19;8.07;;;6.25;;
40599;SDS011;26309;50.924;4.754;2023-03-21T18:25:55;9.07;;;6.78;;
40599;SDS011;26309;50.924;4.754;2023-03-21T18:28:21;10.65;;;7.38;;
40599;SDS011;26309;50.924;4.754;2023-03-21T18:30:47;8.95;;;6.93;;
40599;SDS011;26309;50.924;4.754;2023-03-21T18:33:14;8.57;;;6.47;;
40599;SDS011;26309;50.924;4.754;2023-03-21T18:35:40;9.77;;;7.78;;
40599;SDS011;26309;50.924;4.754;2023-03-21T18:38:06;8.30;;;7.40;;
40599;SDS011;26309;50.924;4.754;2023-03-21T18:40:32;7.65;;;6.88;;
40599;SDS011;26309;50.924;4.754;2023-03-21T18:42:58;9.93;;;6.10;;
40599;SDS011;26309;50.924;4.754;2023-03-21T18:45:24;8.73;;;6.22;;
40599;SDS011;26309;50.924;4.754;2023-03-21T18:47:50;9.38;;;6.32;;
40599;SDS011;26309;50.924;4.754;2023-03-21T18:50:16;10.43;;;6.60;;
40599;SDS011;26309;50.924;4.754;2023-03-21T18:52:43;9.73;;;5.75;;
40599;SDS011;26309;50.924;4.754;2023-03-21T18:55:10;11.45;;;6.55;;
40599;SDS011;26309;50.924;4.754;2023-03-21T18:57:39;10.48;;;6.32;;
40599;SDS011;26309;50.924;4.754;2023-03-21T19:00:07;10.55;;;6.63;;
40599;SDS011;26309;50.924;4.754;2023-03-21T19:02:38;9.65;;;6.85;;
40599;SDS011;26309;50.924;4.754;2023-03-21T19:05:06;10.02;;;5.80;;
40599;SDS011;26309;50.924;4.754;2023-03-21T19:07:33;10.65;;;6.57;;
40599;SDS011;26309;50.924;4.754;2023-03-21T19:09:59;11.18;;;7.55;;
40599;SDS011;26309;50.924;4.754;2023-03-21T19:12:25;10.30;;;7.28;;
40599;SDS011;26309;50.924;4.754;2023-03-21T19:14:52;10.73;;;7.00;;
40599;SDS011;26309;50.924;4.754;2023-03-21T19:17:18;12.02;;;6.80;;
40599;SDS011;26309;50.924;4.754;2023-03-21T19:19:44;9.80;;;7.35;;
40599;SDS011;26309;50.924;4.754;2023-03-21T19:22:10;10.27;;;6.72;;
40599;SDS011;26309;50.924;4.754;2023-03-21T19:24:36;9.35;;;6.53;;
40599;SDS011;26309;50.924;4.754;2023-03-21T19:27:03;10.30;;;6.65;;
40599;SDS011;26309;50.924;4.754;2023-03-21T19:29:29;8.73;;;6.70;;
40599;SDS011;26309;50.924;4.754;2023-03-21T19:31:55;8.00;;;7.20;;
40599;SDS011;26309;50.924;4.754;2023-03-21T19:34:21;7.47;;;6.65;;
40599;SDS011;26309;50.924;4.754;2023-03-21T19:36:47;9.07;;;6.50;;
40599;SDS011;26309;50.924;4.754;2023-03-21T19:39:13;10.50;;;7.03;;
40599;SDS011;26309;50.924;4.754;2023-03-21T19:41:43;9.30;;;6.97;;
40599;SDS011;26309;50.924;4.754;2023-03-21T19:44:10;8.32;;;6.28;;
40599;SDS011;26309;50.924;4.754;2023-03-21T19:46:36;11.25;;;6.60;;
40599;SDS011;26309;50.924;4.754;2023-03-21T19:49:02;7.65;;;6.38;;
40599;SDS011;26309;50.924;4.754;2023-03-21T19:51:29;11.52;;;6.70;;
40599;SDS011;26309;50.924;4.754;2023-03-21T19:53:56;8.77;;;6.47;;
40599;SDS011;26309;50.924;4.754;2023-03-21T19:56:23;10.55;;;6.45;;
40599;SDS011;26309;50.924;4.754;2023-03-21T19:58:50;9.52;;;6.28;;
40599;SDS011;26309;50.924;4.754;2023-03-21T20:01:16;11.07;;;6.75;;
40599;SDS011;26309;50.924;4.754;2023-03-21T20:03:42;9.88;;;7.10;;
40599;SDS011;26309;50.924;4.754;2023-03-21T20:06:11;12.57;;;7.38;;
40599;SDS011;26309;50.924;4.754;2023-03-21T20:08:37;11.63;;;7.25;;
40599;SDS011;26309;50.924;4.754;2023-03-21T20:11:03;11.02;;;7.60;;
40599;SDS011;26309;50.924;4.754;2023-03-21T20:13:29;14.32;;;7.00;;
40599;SDS011;26309;50.924;4.754;2023-03-21T20:15:55;11.45;;;7.75;;
40599;SDS011;26309;50.924;4.754;2023-03-21T20:18:22;11.05;;;6.97;;
40599;SDS011;26309;50.924;4.754;2023-03-21T20:20:51;14.07;;;7.10;;
40599;SDS011;26309;50.924;4.754;2023-03-21T20:23:17;13.70;;;7.72;;
40599;SDS011;26309;50.924;4.754;2023-03-21T20:25:44;10.27;;;7.22;;
40599;SDS011;26309;50.924;4.754;2023-03-21T20:28:12;12.43;;;7.50;;
40599;SDS011;26309;50.924;4.754;2023-03-21T20:30:52;11.75;;;6.95;;
40599;SDS011;26309;50.924;4.754;2023-03-21T20:33:20;11.48;;;7.07;;
40599;SDS011;26309;50.924;4.754;2023-03-21T20:35:46;9.43;;;6.93;;
40599;SDS011;26309;50.924;4.754;2023-03-21T20:38:14;9.25;;;6.70;;
40599;SDS011;26309;50.924;4.754;2023-03-21T20:40:44;11.23;;;7.18;;
40599;SDS011;26309;50.924;4.754;2023-03-21T20:43:10;9.77;;;6.75;;
40599;SDS011;26309;50.924;4.754;2023-03-21T20:45:36;11.93;;;6.75;;
40599;SDS011;26309;50.924;4.754;2023-03-21T20:48:03;11.27;;;6.75;;
40599;SDS011;26309;50.924;4.754;2023-03-21T20:50:28;10.80;;;7.03;;
40599;SDS011;26309;50.924;4.754;2023-03-21T20:52:57;12.27;;;7.15;;
40599;SDS011;26309;50.924;4.754;2023-03-21T20:55:23;10.77;;;7.15;;
40599;SDS011;26309;50.924;4.754;2023-03-21T20:57:49;11.88;;;7.32;;
40599;SDS011;26309;50.924;4.754;2023-03-21T21:00:16;13.43;;;7.82;;
40599;SDS011;26309;50.924;4.754;2023-03-21T21:02:43;8.25;;;6.85;;
40599;SDS011;26309;50.924;4.754;2023-03-21T21:05:11;11.73;;;7.40;;
40599;SDS011;26309;50.924;4.754;2023-03-21T21:07:39;11.82;;;6.75;;
40599;SDS011;26309;50.924;4.754;2023-03-21T21:10:07;11.23;;;6.18;;
40599;SDS011;26309;50.924;4.754;2023-03-21T21:12:36;8.40;;;5.32;;
40599;SDS011;26309;50.924;4.754;2023-03-21T21:15:04;11.55;;;6.07;;
40599;SDS011;26309;50.924;4.754;2023-03-21T21:17:32;11.23;;;5.82;;
40599;SDS011;26309;50.924;4.754;2023-03-21T21:19:58;13.43;;;6.20;;
40599;SDS011;26309;50.924;4.754;2023-03-21T21:22:39;14.00;;;5.72;;
40599;SDS011;26309;50.924;4.754;2023-03-21T21:25:05;10.00;;;6.47;;
40599;SDS011;26309;50.924;4.754;2023-03-21T21:27:31;10.85;;;6.72;;
40599;SDS011;26309;50.924;4.754;2023-03-21T21:29:58;9.60;;;6.05;;
40599;SDS011;26309;50.924;4.754;2023-03-21T21:32:24;12.18;;;7.47;;
40599;SDS011;26309;50.924;4.754;2023-03-21T21:34:51;11.07;;;7.65;;
40599;SDS011;26309;50.924;4.754;2023-03-21T21:37:17;11.43;;;7.47;;
40599;SDS011;26309;50.924;4.754;2023-03-21T21:39:43;11.27;;;7.57;;
40599;SDS011;26309;50.924;4.754;2023-03-21T21:42:09;17.52;;;8.05;;
40599;SDS011;26309;50.924;4.754;2023-03-21T21:44:35;9.95;;;7.90;;
40599;SDS011;26309;50.924;4.754;2023-03-21T21:47:04;11.27;;;7.40;;
40599;SDS011;26309;50.924;4.754;2023-03-21T21:49:36;12.98;;;8.27;;
40599;SDS011;26309;50.924;4.754;2023-03-21T21:52:03;14.60;;;8.13;;
40599;SDS011;26309;50.924;4.754;2023-03-21T21:54:29;11.40;;;7.43;;
40599;SDS011;26309;50.924;4.754;2023-03-21T21:57:01;13.77;;;7.93;;
40599;SDS011;26309;50.924;4.754;2023-03-21T21:59:28;14.20;;;7.60;;
40599;SDS011;26309;50.924;4.754;2023-03-21T22:01:54;10.88;;;6.70;;
40599;SDS011;26309;50.924;4.754;2023-03-21T22:04:20;11.02;;;7.13;;
40599;SDS011;26309;50.924;4.754;2023-03-21T22:06:51;11.93;;;7.07;;
40599;SDS011;26309;50.924;4.754;2023-03-21T22:09:18;12.63;;;7.82;;
40599;SDS011;26309;50.924;4.754;2023-03-21T22:11:44;12.57;;;6.43;;